createdAt,value
2023-05-09T00:00:50.948Z,19.38
2023-05-09T00:01:51.054Z,19.39
2023-05-09T00:02:50.932Z,19.42
2023-05-09T00:03:50.956Z,19.42
2023-05-09T00:04:51.002Z,19.41
2023-05-09T00:05:50.946Z,19.41
2023-05-09T00:06:50.940Z,19.44
2023-05-09T00:07:50.925Z,19.44
2023-05-09T00:08:50.937Z,19.47
2023-05-09T00:09:50.917Z,19.38
2023-05-09T00:10:50.955Z,19.33
2023-05-09T00:11:50.941Z,19.35
2023-05-09T00:12:50.976Z,19.39
2023-05-09T00:13:50.997Z,19.37
2023-05-09T00:14:50.954Z,19.38
2023-05-09T00:15:51.013Z,19.38
2023-05-09T00:16:51.071Z,19.38
2023-05-09T00:17:51.052Z,19.38
2023-05-09T00:18:50.961Z,19.38
2023-05-09T00:19:50.929Z,19.25
2023-05-09T00:20:50.941Z,19.16
2023-05-09T00:21:50.965Z,19.14
2023-05-09T00:22:50.982Z,19.13
2023-05-09T00:23:50.987Z,19.07
2023-05-09T00:24:50.950Z,19.14
2023-05-09T00:25:50.998Z,19.17
2023-05-09T00:26:50.977Z,19.23
2023-05-09T00:27:50.992Z,19.25
2023-05-09T00:28:50.989Z,19.28
2023-05-09T00:29:51.012Z,19.27
2023-05-09T00:30:51.016Z,19.34
2023-05-09T00:31:51.183Z,19.35
2023-05-09T00:32:51.036Z,19.37
2023-05-09T00:33:50.998Z,19.38
2023-05-09T00:34:51.004Z,19.35
2023-05-09T00:35:51.027Z,19.39
2023-05-09T00:36:51.020Z,19.39
2023-05-09T00:37:51.029Z,19.39
2023-05-09T00:38:51.035Z,19.35
2023-05-09T00:39:51.026Z,19.35
2023-05-09T00:40:51.035Z,19.37
2023-05-09T00:41:51.087Z,19.37
2023-05-09T00:42:51.045Z,19.35
2023-05-09T00:43:51.019Z,19.37
2023-05-09T00:44:51.021Z,19.37
2023-05-09T00:45:50.997Z,19.35
2023-05-09T00:46:51.075Z,19.37
2023-05-09T00:47:51.043Z,19.39
2023-05-09T00:48:51.003Z,19.41
2023-05-09T00:49:51.029Z,19.41
2023-05-09T00:50:51.043Z,19.42
2023-05-09T00:51:50.998Z,19.45
2023-05-09T00:52:51.033Z,19.44
2023-05-09T00:53:51.034Z,19.44
2023-05-09T00:54:51.032Z,19.44
2023-05-09T00:55:51.048Z,19.41
2023-05-09T00:56:51.033Z,19.39
2023-05-09T00:57:51.045Z,19.38
2023-05-09T00:58:51.064Z,19.35
2023-05-09T00:59:51.057Z,19.33
2023-05-09T01:00:51.043Z,19.35
2023-05-09T01:01:51.202Z,19.39
2023-05-09T01:02:51.145Z,19.37
2023-05-09T01:03:51.149Z,19.38
2023-05-09T01:04:51.038Z,19.39
2023-05-09T01:05:51.076Z,19.41
2023-05-09T01:06:51.099Z,19.39
2023-05-09T01:07:51.064Z,19.41
2023-05-09T01:08:51.076Z,19.44
2023-05-09T01:09:51.129Z,19.44
2023-05-09T01:10:51.103Z,19.44
2023-05-09T01:11:51.601Z,19.44
2023-05-09T01:12:51.195Z,19.50
2023-05-09T01:13:51.154Z,19.47
2023-05-09T01:14:51.116Z,19.48
2023-05-09T01:15:51.187Z,19.47
2023-05-09T01:16:51.136Z,19.50
2023-05-09T01:17:51.240Z,19.51
2023-05-09T01:18:51.153Z,19.50
2023-05-09T01:19:51.218Z,19.51
2023-05-09T01:20:51.126Z,19.48
2023-05-09T01:21:51.182Z,19.48
2023-05-09T01:22:51.163Z,19.51
2023-05-09T01:23:51.168Z,19.51
2023-05-09T01:24:51.178Z,19.51
2023-05-09T01:25:51.184Z,19.54
2023-05-09T01:26:51.587Z,19.50
2023-05-09T01:27:51.148Z,19.52
2023-05-09T01:28:51.151Z,19.52
2023-05-09T01:29:51.178Z,19.55
2023-05-09T01:30:51.141Z,19.54
2023-05-09T01:31:51.253Z,19.52
2023-05-09T01:32:51.192Z,19.54
2023-05-09T01:33:51.139Z,19.55
2023-05-09T01:34:51.134Z,19.55
2023-05-09T01:35:51.231Z,19.54
2023-05-09T01:36:51.161Z,19.55
2023-05-09T01:37:51.159Z,19.55
2023-05-09T01:38:51.130Z,19.57
2023-05-09T01:39:51.127Z,19.57
2023-05-09T01:40:51.148Z,19.59
2023-05-09T01:41:51.604Z,19.59
2023-05-09T01:42:51.134Z,19.57
2023-05-09T01:43:51.159Z,19.59
2023-05-09T01:44:51.096Z,19.58
2023-05-09T01:45:51.135Z,19.59
2023-05-09T01:46:51.608Z,19.59
2023-05-09T01:47:51.178Z,19.59
2023-05-09T01:48:51.134Z,19.58
2023-05-09T01:49:51.123Z,19.55
2023-05-09T01:50:51.151Z,19.55
2023-05-09T01:51:51.183Z,19.54
2023-05-09T01:52:51.113Z,19.51
2023-05-09T01:53:51.137Z,19.48
2023-05-09T01:54:51.126Z,19.50
2023-05-09T01:55:51.124Z,19.47
2023-05-09T01:56:51.625Z,19.48
2023-05-09T01:57:51.151Z,19.50
2023-05-09T01:58:51.141Z,19.48
2023-05-09T01:59:51.208Z,19.47
2023-05-09T02:00:51.214Z,19.44
2023-05-09T02:01:51.621Z,19.42
2023-05-09T02:02:51.291Z,19.42
2023-05-09T02:03:51.191Z,19.45
2023-05-09T02:04:51.191Z,19.42
2023-05-09T02:05:51.176Z,19.39
2023-05-09T02:06:51.181Z,19.27
2023-05-09T02:07:51.264Z,19.20
2023-05-09T02:08:51.168Z,19.11
2023-05-09T02:09:51.228Z,19.03
2023-05-09T02:10:51.250Z,19.05
2023-05-09T02:11:51.199Z,18.95
2023-05-09T02:12:51.246Z,18.90
2023-05-09T02:13:51.183Z,18.93
2023-05-09T02:14:51.213Z,18.90
2023-05-09T02:15:51.209Z,18.88
2023-05-09T02:16:51.243Z,18.95
2023-05-09T02:17:51.340Z,18.99
2023-05-09T02:18:51.242Z,18.99
2023-05-09T02:19:51.191Z,19.02
2023-05-09T02:20:51.252Z,19.03
2023-05-09T02:21:51.621Z,18.97
2023-05-09T02:22:51.251Z,19.02
2023-05-09T02:23:51.342Z,19.06
2023-05-09T02:24:51.279Z,19.10
2023-05-09T02:25:51.299Z,19.11
2023-05-09T02:26:51.321Z,19.14
2023-05-09T02:27:51.308Z,19.16
2023-05-09T02:28:51.313Z,19.13
2023-05-09T02:29:51.409Z,19.09
2023-05-09T02:30:51.367Z,19.10
2023-05-09T02:31:51.648Z,19.06
2023-05-09T02:32:51.397Z,18.89
2023-05-09T02:33:51.375Z,18.96
2023-05-09T02:34:51.400Z,18.99
2023-05-09T02:35:51.409Z,19.02
2023-05-09T02:36:51.769Z,19.00
2023-05-09T02:37:51.440Z,18.96
2023-05-09T02:38:51.424Z,19.03
2023-05-09T02:39:51.479Z,19.03
2023-05-09T02:40:52.388Z,19.06
2023-05-09T02:41:51.660Z,19.07
2023-05-09T02:42:51.546Z,19.07
2023-05-09T02:43:51.567Z,19.11
2023-05-09T02:44:51.562Z,19.11
2023-05-09T02:45:51.623Z,19.16
2023-05-09T02:46:51.624Z,19.18
2023-05-09T02:47:51.666Z,19.18
2023-05-09T02:48:51.661Z,19.20
2023-05-09T02:49:51.720Z,19.21
2023-05-09T02:50:51.715Z,19.18
2023-05-09T02:51:51.738Z,19.14
2023-05-09T02:52:51.768Z,19.17
2023-05-09T02:53:51.766Z,19.18
2023-05-09T02:54:51.790Z,19.16
2023-05-09T02:55:51.886Z,19.20
2023-05-09T02:56:51.878Z,19.21
2023-05-09T02:57:58.949Z,19.24
2023-05-09T02:58:52.824Z,19.18
2023-05-09T02:59:51.835Z,19.18
2023-05-09T03:00:51.829Z,19.21
2023-05-09T03:01:51.909Z,19.23
2023-05-09T03:02:52.164Z,19.23
2023-05-09T03:03:51.897Z,19.21
2023-05-09T03:04:51.815Z,19.21
2023-05-09T03:05:51.810Z,19.16
2023-05-09T03:06:51.781Z,19.10
2023-05-09T03:07:51.769Z,19.13
2023-05-09T03:08:51.761Z,19.14
2023-05-09T03:09:51.747Z,19.17
2023-05-09T03:10:51.764Z,19.16
2023-05-09T03:11:52.700Z,19.20
2023-05-09T03:12:51.772Z,19.17
2023-05-09T03:13:51.785Z,19.23
2023-05-09T03:14:51.794Z,19.16
2023-05-09T03:15:51.854Z,19.13
2023-05-09T03:16:51.898Z,19.17
2023-05-09T03:17:51.919Z,19.13
2023-05-09T03:18:51.962Z,19.14
2023-05-09T03:19:52.010Z,19.14
2023-05-09T03:20:52.020Z,19.17
2023-05-09T03:21:52.038Z,19.13
2023-05-09T03:22:52.155Z,19.16
2023-05-09T03:23:52.069Z,19.16
2023-05-09T03:24:52.154Z,19.17
2023-05-09T03:25:52.160Z,19.14
2023-05-09T03:26:52.290Z,19.13
2023-05-09T03:27:52.334Z,19.10
2023-05-09T03:28:52.286Z,19.10
2023-05-09T03:29:52.290Z,19.10
2023-05-09T03:30:52.317Z,19.11
2023-05-09T03:31:52.527Z,19.10
2023-05-09T03:32:52.485Z,19.13
2023-05-09T03:33:52.448Z,19.13
2023-05-09T03:34:52.559Z,19.13
2023-05-09T03:35:52.524Z,19.11
2023-05-09T03:36:52.582Z,19.14
2023-05-09T03:37:52.603Z,19.11
2023-05-09T03:38:52.650Z,19.13
2023-05-09T03:39:52.709Z,19.13
2023-05-09T03:40:52.777Z,19.13
2023-05-09T03:41:52.772Z,19.11
2023-05-09T03:42:52.824Z,19.06
2023-05-09T03:43:52.944Z,19.05
2023-05-09T03:44:52.852Z,19.06
2023-05-09T03:45:52.932Z,19.05
2023-05-09T03:46:52.997Z,19.05
2023-05-09T03:47:53.054Z,18.99
2023-05-09T03:48:53.026Z,18.99
2023-05-09T03:49:53.088Z,18.97
2023-05-09T03:50:53.091Z,19.02
2023-05-09T03:51:53.169Z,19.00
2023-05-09T03:52:53.187Z,19.05
2023-05-09T03:53:53.231Z,18.93
2023-05-09T03:54:53.271Z,18.89
2023-05-09T03:55:53.287Z,18.97
2023-05-09T03:56:53.329Z,18.95
2023-05-09T03:57:53.357Z,18.95
2023-05-09T03:58:53.418Z,18.96
2023-05-09T03:59:53.480Z,18.95
2023-05-09T04:00:53.454Z,18.99
2023-05-09T04:01:53.531Z,18.96
2023-05-09T04:02:53.671Z,19.02
2023-05-09T04:03:53.622Z,19.03
2023-05-09T04:04:53.593Z,19.03
2023-05-09T04:05:53.613Z,19.02
2023-05-09T04:06:53.612Z,19.02
2023-05-09T04:07:53.669Z,19.06
2023-05-09T04:08:53.647Z,19.03
2023-05-09T04:09:53.719Z,19.00
2023-05-09T04:10:53.761Z,18.93
2023-05-09T04:11:53.741Z,18.90
2023-05-09T04:12:53.810Z,18.89
2023-05-09T04:13:53.813Z,18.93
2023-05-09T04:14:53.821Z,18.97
2023-05-09T04:15:53.956Z,18.96
2023-05-09T04:16:53.999Z,19.00
2023-05-09T04:17:54.008Z,18.96
2023-05-09T04:18:53.908Z,18.97
2023-05-09T04:19:54.000Z,18.99
2023-05-09T04:20:53.977Z,19.05
2023-05-09T04:21:54.010Z,19.06
2023-05-09T04:22:54.007Z,18.93
2023-05-09T04:23:54.038Z,18.80
2023-05-09T04:24:54.091Z,18.72
2023-05-09T04:25:54.059Z,18.63
2023-05-09T04:26:54.122Z,18.58
2023-05-09T04:27:54.164Z,18.47
2023-05-09T04:28:54.217Z,18.50
2023-05-09T04:29:54.185Z,18.50
2023-05-09T04:30:54.287Z,18.47
2023-05-09T04:31:54.485Z,18.54
2023-05-09T04:32:54.354Z,18.54
2023-05-09T04:33:54.295Z,18.45
2023-05-09T04:34:54.336Z,18.51
2023-05-09T04:35:54.347Z,18.41
2023-05-09T04:36:54.373Z,18.47
2023-05-09T04:37:54.432Z,18.41
2023-05-09T04:38:54.458Z,18.48
2023-05-09T04:39:54.477Z,18.48
2023-05-09T04:40:54.532Z,18.52
2023-05-09T04:41:54.557Z,18.58
2023-05-09T04:42:54.638Z,18.58
2023-05-09T04:43:54.642Z,18.62
2023-05-09T04:44:54.683Z,18.56
2023-05-09T04:45:54.714Z,18.51
2023-05-09T04:46:54.799Z,18.47
2023-05-09T04:47:55.265Z,18.38
2023-05-09T04:48:54.842Z,18.48
2023-05-09T04:49:54.836Z,18.55
2023-05-09T04:50:54.919Z,18.59
2023-05-09T04:51:55.011Z,18.51
2023-05-09T04:52:55.009Z,18.59
2023-05-09T04:53:55.052Z,18.59
2023-05-09T04:54:55.075Z,18.61
2023-05-09T04:55:55.138Z,18.68
2023-05-09T04:57:55.254Z,18.76
2023-05-09T04:58:55.238Z,18.76
2023-05-09T04:59:55.296Z,18.75
2023-05-09T05:00:55.322Z,18.79
2023-05-09T05:01:55.380Z,18.82
2023-05-09T05:02:55.700Z,18.83
2023-05-09T05:03:55.575Z,18.85
2023-05-09T05:05:03.016Z,18.78
2023-05-09T05:05:56.479Z,18.80
2023-05-09T05:06:55.510Z,18.85
2023-05-09T05:07:55.559Z,18.78
2023-05-09T05:08:55.523Z,18.79
2023-05-09T05:09:55.484Z,18.83
2023-05-09T05:10:55.447Z,18.88
2023-05-09T05:11:59.879Z,18.86
2023-05-09T05:12:56.492Z,18.85
2023-05-09T05:13:55.458Z,18.83
2023-05-09T05:14:55.473Z,18.82
2023-05-09T05:15:55.451Z,18.83
2023-05-09T05:16:55.422Z,18.85
2023-05-09T05:17:55.452Z,18.90
2023-05-09T05:18:55.434Z,18.86
2023-05-09T05:19:55.496Z,18.72
2023-05-09T05:20:55.396Z,18.82
2023-05-09T05:21:55.406Z,18.82
2023-05-09T05:22:55.374Z,18.82
2023-05-09T05:23:55.354Z,18.88
2023-05-09T05:24:55.439Z,18.93
2023-05-09T05:25:55.442Z,18.95
2023-05-09T05:26:55.495Z,18.96
2023-05-09T05:27:55.548Z,18.96
2023-05-09T05:28:55.559Z,18.96
2023-05-09T05:29:55.610Z,19.03
2023-05-09T05:30:55.652Z,19.03
2023-05-09T05:31:55.836Z,19.06
2023-05-09T05:32:55.784Z,19.11
2023-05-09T05:33:55.755Z,19.09
2023-05-09T05:34:55.794Z,19.13
2023-05-09T05:35:55.932Z,19.16
2023-05-09T05:36:55.854Z,19.20
2023-05-09T05:37:55.881Z,19.20
2023-05-09T05:38:55.960Z,19.21
2023-05-09T05:39:55.980Z,19.23
2023-05-09T05:40:55.992Z,19.25
2023-05-09T05:41:56.005Z,19.28
2023-05-09T05:42:56.202Z,19.31
2023-05-09T05:43:56.590Z,19.31
2023-05-09T05:44:56.065Z,19.37
2023-05-09T05:45:56.182Z,19.42
2023-05-09T05:46:56.161Z,19.50
2023-05-09T05:47:56.168Z,19.52
2023-05-09T05:48:56.176Z,19.57
2023-05-09T05:49:56.219Z,19.57
2023-05-09T05:50:56.171Z,19.58
2023-05-09T05:51:56.292Z,19.58
2023-05-09T05:52:56.668Z,19.59
2023-05-09T05:53:56.203Z,19.61
2023-05-09T05:54:56.249Z,19.64
2023-05-09T05:55:56.247Z,19.64
2023-05-09T05:56:56.248Z,19.61
2023-05-09T05:57:56.703Z,19.64
2023-05-09T05:58:56.267Z,19.59
2023-05-09T05:59:56.235Z,19.59
2023-05-09T06:00:56.284Z,19.57
2023-05-09T06:01:56.305Z,19.59
2023-05-09T06:02:56.769Z,19.58
2023-05-09T06:03:56.443Z,19.61
2023-05-09T06:04:56.335Z,19.59
2023-05-09T06:05:56.283Z,19.62
2023-05-09T06:06:56.297Z,19.64
2023-05-09T06:07:56.358Z,19.64
2023-05-09T06:08:56.288Z,19.66
2023-05-09T06:09:56.274Z,19.68
2023-05-09T06:10:56.308Z,19.66
2023-05-09T06:11:56.314Z,19.52
2023-05-09T06:12:56.379Z,19.59
2023-05-09T06:13:56.331Z,19.59
2023-05-09T06:14:56.340Z,19.66
2023-05-09T06:15:59.756Z,19.64
2023-05-09T06:16:57.463Z,19.54
2023-05-09T06:17:56.468Z,19.58
2023-05-09T06:18:56.444Z,19.48
2023-05-09T06:19:56.344Z,19.52
2023-05-09T06:20:56.345Z,19.54
2023-05-09T06:21:56.316Z,19.57
2023-05-09T06:22:56.316Z,19.55
2023-05-09T06:24:56.283Z,19.59
2023-05-09T06:25:56.288Z,19.61
2023-05-09T06:26:56.303Z,19.62
2023-05-09T06:27:56.293Z,19.65
2023-05-09T06:28:56.276Z,19.62
2023-05-09T06:29:56.275Z,19.64
2023-05-09T06:30:56.289Z,19.51
2023-05-09T06:31:56.293Z,19.33
2023-05-09T06:32:56.325Z,19.44
2023-05-09T06:33:56.264Z,19.35
2023-05-09T06:34:56.251Z,19.48
2023-05-09T06:35:56.242Z,19.44
2023-05-09T06:36:56.210Z,19.48
2023-05-09T06:37:56.235Z,19.50
2023-05-09T06:38:56.285Z,19.57
2023-05-09T06:39:56.314Z,19.72
2023-05-09T06:40:56.263Z,19.82
2023-05-09T06:41:56.166Z,19.85
2023-05-09T06:42:56.713Z,19.95
2023-05-09T06:43:56.221Z,20.03
2023-05-09T06:44:56.229Z,20.16
2023-05-09T06:45:56.186Z,20.21
2023-05-09T06:46:56.189Z,20.31
2023-05-09T06:47:56.245Z,20.34
2023-05-09T06:48:56.166Z,20.45
2023-05-09T06:49:56.144Z,20.56
2023-05-09T06:50:56.146Z,20.62
2023-05-09T06:51:56.123Z,20.71
2023-05-09T06:52:56.118Z,20.80
2023-05-09T06:53:56.144Z,20.88
2023-05-09T06:54:56.124Z,20.95
2023-05-09T06:55:56.223Z,21.02
2023-05-09T06:56:56.099Z,21.06
2023-05-09T06:57:56.106Z,21.09
2023-05-09T06:58:56.199Z,21.14
2023-05-09T06:59:56.095Z,21.19
2023-05-09T07:00:56.098Z,21.22
2023-05-09T07:01:56.104Z,21.23
2023-05-09T07:02:56.108Z,21.27
2023-05-09T07:03:56.107Z,21.31
2023-05-09T07:04:56.177Z,21.33
2023-05-09T07:05:56.033Z,21.31
2023-05-09T07:06:56.050Z,21.26
2023-05-09T07:07:56.032Z,21.26
2023-05-09T07:08:56.033Z,21.17
2023-05-09T07:10:07.375Z,21.14
2023-05-09T07:10:56.995Z,21.11
2023-05-09T07:13:06.207Z,21.07
2023-05-09T07:14:06.129Z,21.13
2023-05-09T07:15:06.080Z,21.19
2023-05-09T07:16:06.167Z,21.22
2023-05-09T07:17:21.816Z,21.23
2023-05-09T07:18:07.097Z,21.26
2023-05-09T07:19:06.078Z,21.30
2023-05-09T07:20:06.062Z,21.33
2023-05-09T07:21:06.032Z,21.36
2023-05-09T07:22:06.070Z,21.40
2023-05-09T07:23:06.192Z,21.40
2023-05-09T07:24:06.026Z,21.45
2023-05-09T07:25:06.003Z,21.48
2023-05-09T07:26:06.036Z,21.45
2023-05-09T07:27:05.994Z,21.41
2023-05-09T07:28:06.304Z,21.38
2023-05-09T07:29:06.069Z,21.37
2023-05-09T07:30:05.946Z,21.26
2023-05-09T07:31:05.968Z,21.20
2023-05-09T07:32:06.037Z,21.19
2023-05-09T07:33:06.077Z,21.11
2023-05-09T07:34:05.966Z,21.06
2023-05-09T07:35:06.021Z,21.03
2023-05-09T07:36:06.074Z,21.02
2023-05-09T07:37:06.032Z,20.97
2023-05-09T07:38:06.069Z,20.97
2023-05-09T07:39:06.293Z,20.93
2023-05-09T07:40:06.084Z,20.82
2023-05-09T07:41:06.038Z,20.82
2023-05-09T07:42:06.013Z,20.80
2023-05-09T07:43:06.039Z,20.86
2023-05-09T07:44:06.323Z,20.92
2023-05-09T07:45:06.156Z,21.02
2023-05-09T07:46:06.053Z,21.07
2023-05-09T07:47:05.986Z,21.11
2023-05-09T07:48:06.016Z,21.14
2023-05-09T07:49:06.034Z,21.13
2023-05-09T07:50:05.989Z,21.13
2023-05-09T07:51:06.959Z,21.09
2023-05-09T07:52:05.977Z,21.10
2023-05-09T07:53:06.777Z,21.07
2023-05-09T07:54:05.914Z,21.05
2023-05-09T07:55:05.986Z,21.06
2023-05-09T07:56:05.905Z,21.03
2023-05-09T07:57:05.916Z,21.03
2023-05-09T07:58:05.900Z,21.02
2023-05-09T07:59:05.960Z,21.00
2023-05-09T08:00:05.957Z,21.02
2023-05-09T08:01:06.108Z,21.02
2023-05-09T08:02:06.086Z,21.03
2023-05-09T08:03:06.377Z,21.00
2023-05-09T08:04:06.369Z,20.99
2023-05-09T08:05:06.263Z,20.93
2023-05-09T08:06:06.320Z,20.89
2023-05-09T08:07:06.323Z,20.96
2023-05-09T08:08:06.404Z,20.95
2023-05-09T08:09:06.791Z,20.82
2023-05-09T08:10:06.484Z,20.86
2023-05-09T08:11:06.554Z,20.89
2023-05-09T08:12:06.581Z,20.82
2023-05-09T08:13:06.684Z,20.88
2023-05-09T08:14:06.715Z,20.69
2023-05-09T08:15:06.717Z,20.76
2023-05-09T08:16:06.809Z,20.86
2023-05-09T08:17:06.879Z,20.90
2023-05-09T08:18:06.905Z,20.90
2023-05-09T08:19:07.285Z,20.76
2023-05-09T08:20:06.885Z,20.76
2023-05-09T08:21:06.910Z,20.83
2023-05-09T08:22:06.943Z,20.67
2023-05-09T08:23:07.016Z,20.78
2023-05-09T08:24:07.078Z,20.89
2023-05-09T08:25:07.094Z,21.00
2023-05-09T08:26:07.151Z,21.03
2023-05-09T08:27:07.152Z,21.05
2023-05-09T08:28:07.223Z,21.09
2023-05-09T08:29:07.341Z,21.19
2023-05-09T08:30:07.227Z,21.14
2023-05-09T08:31:07.269Z,21.23
2023-05-09T08:32:07.309Z,21.27
2023-05-09T08:33:07.326Z,21.38
2023-05-09T08:34:07.303Z,21.37
2023-05-09T08:35:07.317Z,21.26
2023-05-09T08:36:07.329Z,21.36
2023-05-09T08:37:07.388Z,21.44
2023-05-09T08:38:07.436Z,21.52
2023-05-09T08:39:07.805Z,21.59
2023-05-09T08:40:07.561Z,21.65
2023-05-09T08:41:07.615Z,21.74
2023-05-09T08:42:07.671Z,21.81
2023-05-09T08:43:07.754Z,21.85
2023-05-09T08:44:07.811Z,21.71
2023-05-09T08:45:07.812Z,21.72
2023-05-09T08:46:07.894Z,21.38
2023-05-09T08:47:07.857Z,21.54
2023-05-09T08:48:07.937Z,21.68
2023-05-09T08:49:08.532Z,21.79
2023-05-09T08:50:07.999Z,21.88
2023-05-09T08:51:08.018Z,21.86
2023-05-09T08:52:08.056Z,21.97
2023-05-09T08:53:08.055Z,21.95
2023-05-09T08:54:08.340Z,21.88
2023-05-09T08:55:08.053Z,22.02
2023-05-09T08:56:08.050Z,22.07
2023-05-09T08:57:08.055Z,22.16
2023-05-09T08:58:08.107Z,22.17
2023-05-09T08:59:08.165Z,22.24
2023-05-09T09:00:08.153Z,22.23
2023-05-09T09:01:08.180Z,22.17
2023-05-09T09:02:08.326Z,22.09
2023-05-09T09:03:08.289Z,22.09
2023-05-09T09:04:08.328Z,21.89
2023-05-09T09:05:16.115Z,21.84
2023-05-09T09:06:09.292Z,21.92
2023-05-09T09:07:08.261Z,21.59
2023-05-09T09:08:08.288Z,21.44
2023-05-09T09:09:08.308Z,21.64
2023-05-09T09:10:08.265Z,21.78
2023-05-09T09:11:08.261Z,21.88
2023-05-09T09:12:08.260Z,21.99
2023-05-09T09:13:08.306Z,22.10
2023-05-09T09:14:08.208Z,22.13
2023-05-09T09:15:08.193Z,22.20
2023-05-09T09:16:08.210Z,22.21
2023-05-09T09:17:08.216Z,22.31
2023-05-09T09:18:08.238Z,22.36
2023-05-09T09:19:08.326Z,22.46
2023-05-09T09:20:08.185Z,22.52
2023-05-09T09:21:08.319Z,22.51
2023-05-09T09:22:08.199Z,22.46
2023-05-09T09:23:08.277Z,22.44
2023-05-09T09:24:08.317Z,22.52
2023-05-09T09:25:08.353Z,22.57
2023-05-09T09:26:08.433Z,22.52
2023-05-09T09:27:08.506Z,22.40
2023-05-09T09:28:08.579Z,22.39
2023-05-09T09:29:08.629Z,22.34
2023-05-09T09:30:08.709Z,22.34
2023-05-09T09:31:08.779Z,22.29
2023-05-09T09:32:08.966Z,22.37
2023-05-09T09:33:08.992Z,22.44
2023-05-09T09:34:08.965Z,22.50
2023-05-09T09:35:08.963Z,22.41
2023-05-09T09:36:09.041Z,22.39
2023-05-09T09:37:09.220Z,22.33
2023-05-09T09:38:09.130Z,22.33
2023-05-09T09:39:09.341Z,22.37
2023-05-09T09:40:09.279Z,22.31
2023-05-09T09:41:09.305Z,22.27
2023-05-09T09:42:09.340Z,22.39
2023-05-09T09:43:09.319Z,22.20
2023-05-09T09:44:09.841Z,22.37
2023-05-09T09:45:09.320Z,22.52
2023-05-09T09:46:09.471Z,22.51
2023-05-09T09:47:09.324Z,22.61
2023-05-09T09:48:09.361Z,22.54
2023-05-09T09:49:09.824Z,22.67
2023-05-09T09:50:09.431Z,22.68
2023-05-09T09:51:09.407Z,22.74
2023-05-09T09:52:09.364Z,22.79
2023-05-09T09:53:09.388Z,22.88
2023-05-09T09:54:09.395Z,22.91
2023-05-09T09:55:09.399Z,23.03
2023-05-09T09:56:09.439Z,23.09
2023-05-09T09:57:09.410Z,22.94
2023-05-09T09:58:09.446Z,23.06
2023-05-09T09:59:09.502Z,23.09
2023-05-09T10:00:09.582Z,23.19
2023-05-09T10:01:09.678Z,23.19
2023-05-09T10:02:09.701Z,23.06
2023-05-09T10:03:09.856Z,23.02
2023-05-09T10:04:09.953Z,23.10
2023-05-09T10:05:09.890Z,22.86
2023-05-09T10:06:09.901Z,22.82
2023-05-09T10:07:11.547Z,22.71
2023-05-09T10:08:09.987Z,22.79
2023-05-09T10:09:10.421Z,22.88
2023-05-09T10:10:10.005Z,22.96
2023-05-09T10:11:10.005Z,22.78
2023-05-09T10:12:09.973Z,22.92
2023-05-09T10:13:10.023Z,23.06
2023-05-09T10:14:10.354Z,23.10
2023-05-09T10:15:09.958Z,23.09
2023-05-09T10:16:10.067Z,23.20
2023-05-09T10:17:09.973Z,23.29
2023-05-09T10:18:10.162Z,23.16
2023-05-09T10:19:10.456Z,23.14
2023-05-09T10:20:09.910Z,23.22
2023-05-09T10:21:09.967Z,23.22
2023-05-09T10:22:09.894Z,23.10
2023-05-09T10:23:09.909Z,23.24
2023-05-09T10:24:10.367Z,23.36
2023-05-09T10:25:09.928Z,23.44
2023-05-09T10:26:09.874Z,23.44
2023-05-09T10:27:09.864Z,23.41
2023-05-09T10:28:09.882Z,23.50
2023-05-09T10:29:09.834Z,23.56
2023-05-09T10:30:09.843Z,23.58
2023-05-09T10:31:09.872Z,23.49
2023-05-09T10:32:09.797Z,23.57
2023-05-09T10:33:09.865Z,23.57
2023-05-09T10:34:09.874Z,23.64
2023-05-09T10:35:09.786Z,23.60
2023-05-09T10:36:09.861Z,23.54
2023-05-09T10:37:09.884Z,23.61
2023-05-09T10:38:09.801Z,23.75
2023-05-09T10:39:09.784Z,23.82
2023-05-09T10:40:09.865Z,23.58
2023-05-09T10:41:10.460Z,23.74
2023-05-09T10:42:10.179Z,23.82
2023-05-09T10:43:09.955Z,23.82
2023-05-09T10:44:10.000Z,23.91
2023-05-09T10:45:09.882Z,23.94
2023-05-09T10:46:10.087Z,23.89
2023-05-09T10:47:09.854Z,23.88
2023-05-09T10:48:09.917Z,23.68
2023-05-09T10:49:09.844Z,23.74
2023-05-09T10:50:09.868Z,23.75
2023-05-09T10:51:09.941Z,23.65
2023-05-09T10:52:09.855Z,23.54
2023-05-09T10:53:09.843Z,23.54
2023-05-09T10:54:09.912Z,23.71
2023-05-09T10:55:09.919Z,23.75
2023-05-09T10:56:09.881Z,23.82
2023-05-09T10:57:10.049Z,23.84
2023-05-09T10:58:09.893Z,23.95
2023-05-09T10:59:10.388Z,23.98
2023-05-09T11:00:09.992Z,24.17
2023-05-09T11:01:10.117Z,24.12
2023-05-09T11:02:10.112Z,24.29
2023-05-09T11:03:10.164Z,24.23
2023-05-09T11:04:10.126Z,24.12
2023-05-09T11:05:10.384Z,24.36
2023-05-09T11:06:10.189Z,24.17
2023-05-09T11:07:10.244Z,24.31
2023-05-09T11:08:10.223Z,24.39
2023-05-09T11:09:10.274Z,24.47
2023-05-09T11:10:10.420Z,24.47
2023-05-09T11:11:10.333Z,24.49
2023-05-09T11:12:10.328Z,24.51
2023-05-09T11:13:10.478Z,24.63
2023-05-09T11:14:10.362Z,24.64
2023-05-09T11:15:10.396Z,24.54
2023-05-09T11:16:10.473Z,24.74
2023-05-09T11:17:11.420Z,24.84
2023-05-09T11:18:10.406Z,24.75
2023-05-09T11:19:10.337Z,24.78
2023-05-09T11:20:10.390Z,24.68
2023-05-09T11:21:10.403Z,24.50
2023-05-09T11:22:10.377Z,24.67
2023-05-09T11:23:10.397Z,24.67
2023-05-09T11:24:10.378Z,24.71
2023-05-09T11:25:10.379Z,24.29
2023-05-09T11:26:10.326Z,24.53
2023-05-09T11:27:10.386Z,24.75
2023-05-09T11:28:10.329Z,24.81
2023-05-09T11:29:10.398Z,24.84
2023-05-09T11:30:10.426Z,24.84
2023-05-09T11:31:10.312Z,24.85
2023-05-09T11:32:10.333Z,24.95
2023-05-09T11:33:10.316Z,25.02
2023-05-09T11:34:10.265Z,24.94
2023-05-09T11:35:10.491Z,24.99
2023-05-09T11:36:10.261Z,25.09
2023-05-09T11:37:10.239Z,25.28
2023-05-09T11:38:10.257Z,25.26
2023-05-09T11:39:10.267Z,25.37
2023-05-09T11:40:10.303Z,25.46
2023-05-09T11:41:10.228Z,25.53
2023-05-09T11:42:10.284Z,25.43
2023-05-09T11:43:10.241Z,25.51
2023-05-09T11:44:10.302Z,25.39
2023-05-09T11:45:10.449Z,25.56
2023-05-09T11:46:10.372Z,25.61
2023-05-09T11:47:10.322Z,25.54
2023-05-09T11:48:10.569Z,25.40
2023-05-09T11:49:11.978Z,25.41
2023-05-09T11:50:10.437Z,25.46
2023-05-09T11:51:10.393Z,25.49
2023-05-09T11:52:10.371Z,25.63
2023-05-09T11:53:10.365Z,25.57
2023-05-09T11:54:10.463Z,25.54
2023-05-09T11:55:12.513Z,25.63
2023-05-09T11:56:10.503Z,25.61
2023-05-09T11:57:10.489Z,25.58
2023-05-09T11:58:10.490Z,25.61
2023-05-09T11:59:10.450Z,25.61
2023-05-09T12:00:10.535Z,25.54
2023-05-09T12:01:11.977Z,25.61
2023-05-09T12:02:10.665Z,25.70
2023-05-09T12:03:10.838Z,25.80
2023-05-09T12:04:10.747Z,25.74
2023-05-09T12:05:10.799Z,25.80
2023-05-09T12:06:10.893Z,25.80
2023-05-09T12:07:10.850Z,25.74
2023-05-09T12:08:10.920Z,25.77
2023-05-09T12:09:10.933Z,25.80
2023-05-09T12:10:10.992Z,25.83
2023-05-09T12:11:10.998Z,25.87
2023-05-09T12:12:11.053Z,26.01
2023-05-09T12:13:11.052Z,25.92
2023-05-09T12:14:11.082Z,25.91
2023-05-09T12:15:11.435Z,26.09
2023-05-09T12:16:11.195Z,26.20
2023-05-09T12:17:11.223Z,25.99
2023-05-09T12:18:11.238Z,25.63
2023-05-09T12:19:11.385Z,25.77
2023-05-09T12:20:11.320Z,25.89
2023-05-09T12:22:31.034Z,26.03
2023-05-09T12:23:41.041Z,26.13
2023-05-09T12:24:31.056Z,26.23
2023-05-09T12:25:30.978Z,26.16
2023-05-09T12:26:31.198Z,25.66
2023-05-09T12:27:31.105Z,25.84
2023-05-09T12:28:30.966Z,26.13
2023-05-09T12:29:30.971Z,26.12
2023-05-09T12:30:31.225Z,26.23
2023-05-09T12:31:31.010Z,26.30
2023-05-09T12:32:31.048Z,26.23
2023-05-09T12:33:30.971Z,26.28
2023-05-09T12:34:30.985Z,26.08
2023-05-09T12:35:30.942Z,25.99
2023-05-09T12:36:30.909Z,26.22
2023-05-09T12:37:30.928Z,26.22
2023-05-09T12:38:30.926Z,26.35
2023-05-09T12:39:30.911Z,26.38
2023-05-09T12:40:30.892Z,26.20
2023-05-09T12:41:39.063Z,26.44
2023-05-09T12:42:31.887Z,26.40
2023-05-09T12:43:30.871Z,26.23
2023-05-09T12:44:30.904Z,26.23
2023-05-09T12:45:30.846Z,26.20
2023-05-09T12:46:30.873Z,26.28
2023-05-09T12:47:30.856Z,26.13
2023-05-09T12:48:30.914Z,26.13
2023-05-09T12:49:30.865Z,26.03
2023-05-09T12:50:30.856Z,26.03
2023-05-09T12:51:30.849Z,26.11
2023-05-09T12:52:30.859Z,26.18
2023-05-09T12:53:30.807Z,26.19
2023-05-09T12:54:31.163Z,26.38
2023-05-09T12:55:31.112Z,26.39
2023-05-09T12:56:31.024Z,26.40
2023-05-09T12:57:31.659Z,26.50